sensor_id;sensor_type;location;lat;lon;timestamp;P1;durP1;ratioP1;P2;durP2;ratioP2
15271;SDS011;7737;51.578;7.268;2023-07-24T00:01:09;4.75;;;3.20;;
15271;SDS011;7737;51.578;7.268;2023-07-24T00:03:35;3.90;;;3.05;;
15271;SDS011;7737;51.578;7.268;2023-07-24T00:06:02;4.18;;;2.85;;
15271;SDS011;7737;51.578;7.268;2023-07-24T00:08:28;3.15;;;2.67;;
15271;SDS011;7737;51.578;7.268;2023-07-24T00:10:57;4.75;;;2.75;;
15271;SDS011;7737;51.578;7.268;2023-07-24T00:13:23;3.72;;;2.85;;
15271;SDS011;7737;51.578;7.268;2023-07-24T00:15:50;3.83;;;2.72;;
15271;SDS011;7737;51.578;7.268;2023-07-24T00:18:16;3.97;;;2.70;;
15271;SDS011;7737;51.578;7.268;2023-07-24T00:20:43;3.42;;;2.85;;
15271;SDS011;7737;51.578;7.268;2023-07-24T00:23:10;4.05;;;2.70;;
15271;SDS011;7737;51.578;7.268;2023-07-24T00:25:37;4.22;;;3.00;;
15271;SDS011;7737;51.578;7.268;2023-07-24T00:28:05;3.30;;;2.90;;
15271;SDS011;7737;51.578;7.268;2023-07-24T00:30:31;4.18;;;3.13;;
15271;SDS011;7737;51.578;7.268;2023-07-24T00:32:58;3.95;;;2.90;;
15271;SDS011;7737;51.578;7.268;2023-07-24T00:35:25;2.80;;;2.60;;
15271;SDS011;7737;51.578;7.268;2023-07-24T00:37:51;3.38;;;3.08;;
15271;SDS011;7737;51.578;7.268;2023-07-24T00:40:18;3.88;;;3.00;;
15271;SDS011;7737;51.578;7.268;2023-07-24T00:42:46;3.85;;;2.97;;
15271;SDS011;7737;51.578;7.268;2023-07-24T00:45:14;5.88;;;3.00;;
15271;SDS011;7737;51.578;7.268;2023-07-24T00:47:41;3.72;;;2.72;;
15271;SDS011;7737;51.578;7.268;2023-07-24T00:50:09;3.95;;;3.10;;
15271;SDS011;7737;51.578;7.268;2023-07-24T00:52:37;6.05;;;2.95;;
15271;SDS011;7737;51.578;7.268;2023-07-24T00:55:04;3.40;;;3.10;;
15271;SDS011;7737;51.578;7.268;2023-07-24T00:57:32;3.45;;;2.88;;
15271;SDS011;7737;51.578;7.268;2023-07-24T00:59:59;3.30;;;3.00;;
15271;SDS011;7737;51.578;7.268;2023-07-24T01:02:27;6.18;;;3.40;;
15271;SDS011;7737;51.578;7.268;2023-07-24T01:04:54;3.35;;;3.03;;
15271;SDS011;7737;51.578;7.268;2023-07-24T01:07:20;4.05;;;3.00;;
15271;SDS011;7737;51.578;7.268;2023-07-24T01:09:47;4.38;;;3.05;;
15271;SDS011;7737;51.578;7.268;2023-07-24T01:12:18;4.90;;;3.00;;
15271;SDS011;7737;51.578;7.268;2023-07-24T01:14:49;3.70;;;2.90;;
15271;SDS011;7737;51.578;7.268;2023-07-24T01:17:23;4.95;;;3.40;;
15271;SDS011;7737;51.578;7.268;2023-07-24T01:19:54;3.65;;;2.95;;
15271;SDS011;7737;51.578;7.268;2023-07-24T01:22:24;4.18;;;2.90;;
15271;SDS011;7737;51.578;7.268;2023-07-24T01:25:04;4.07;;;3.35;;
15271;SDS011;7737;51.578;7.268;2023-07-24T01:27:41;3.15;;;2.70;;
15271;SDS011;7737;51.578;7.268;2023-07-24T01:30:08;3.20;;;2.67;;
15271;SDS011;7737;51.578;7.268;2023-07-24T01:32:35;2.88;;;2.67;;
15271;SDS011;7737;51.578;7.268;2023-07-24T01:35:03;3.80;;;3.00;;
15271;SDS011;7737;51.578;7.268;2023-07-24T01:37:30;4.00;;;3.10;;
15271;SDS011;7737;51.578;7.268;2023-07-24T01:39:57;4.40;;;3.00;;
15271;SDS011;7737;51.578;7.268;2023-07-24T01:42:25;4.57;;;3.15;;
15271;SDS011;7737;51.578;7.268;2023-07-24T01:44:54;4.15;;;3.17;;
15271;SDS011;7737;51.578;7.268;2023-07-24T01:47:21;4.40;;;3.08;;
15271;SDS011;7737;51.578;7.268;2023-07-24T01:49:48;3.60;;;3.10;;
15271;SDS011;7737;51.578;7.268;2023-07-24T01:52:15;4.72;;;3.45;;
15271;SDS011;7737;51.578;7.268;2023-07-24T01:54:41;4.07;;;3.40;;
15271;SDS011;7737;51.578;7.268;2023-07-24T01:57:08;3.42;;;3.13;;
15271;SDS011;7737;51.578;7.268;2023-07-24T01:59:34;3.75;;;3.15;;
15271;SDS011;7737;51.578;7.268;2023-07-24T02:02:02;5.30;;;3.28;;
15271;SDS011;7737;51.578;7.268;2023-07-24T02:04:29;5.45;;;3.22;;
15271;SDS011;7737;51.578;7.268;2023-07-24T02:06:55;3.58;;;3.05;;
15271;SDS011;7737;51.578;7.268;2023-07-24T02:09:22;4.57;;;2.90;;
15271;SDS011;7737;51.578;7.268;2023-07-24T02:11:48;3.80;;;3.08;;
15271;SDS011;7737;51.578;7.268;2023-07-24T02:14:17;3.90;;;3.03;;
15271;SDS011;7737;51.578;7.268;2023-07-24T02:16:45;3.50;;;3.03;;
15271;SDS011;7737;51.578;7.268;2023-07-24T02:19:13;4.65;;;3.00;;
15271;SDS011;7737;51.578;7.268;2023-07-24T02:21:40;4.22;;;3.00;;
15271;SDS011;7737;51.578;7.268;2023-07-24T02:24:06;3.67;;;3.03;;
15271;SDS011;7737;51.578;7.268;2023-07-24T02:26:33;3.67;;;3.17;;
15271;SDS011;7737;51.578;7.268;2023-07-24T02:28:59;3.40;;;3.10;;
15271;SDS011;7737;51.578;7.268;2023-07-24T02:31:26;5.22;;;3.00;;
15271;SDS011;7737;51.578;7.268;2023-07-24T02:33:52;3.97;;;3.03;;
15271;SDS011;7737;51.578;7.268;2023-07-24T02:36:20;4.03;;;3.30;;
15271;SDS011;7737;51.578;7.268;2023-07-24T02:38:47;3.67;;;3.22;;
15271;SDS011;7737;51.578;7.268;2023-07-24T02:41:13;4.28;;;3.67;;
15271;SDS011;7737;51.578;7.268;2023-07-24T02:43:40;3.97;;;3.10;;
15271;SDS011;7737;51.578;7.268;2023-07-24T02:46:06;3.45;;;2.97;;
15271;SDS011;7737;51.578;7.268;2023-07-24T02:48:33;3.53;;;3.22;;
15271;SDS011;7737;51.578;7.268;2023-07-24T02:51:00;4.00;;;3.50;;
15271;SDS011;7737;51.578;7.268;2023-07-24T02:53:27;3.83;;;3.03;;
15271;SDS011;7737;51.578;7.268;2023-07-24T02:55:54;3.88;;;3.30;;
15271;SDS011;7737;51.578;7.268;2023-07-24T02:58:20;5.63;;;3.33;;
15271;SDS011;7737;51.578;7.268;2023-07-24T03:00:47;6.15;;;3.20;;
15271;SDS011;7737;51.578;7.268;2023-07-24T03:03:14;5.25;;;3.40;;
15271;SDS011;7737;51.578;7.268;2023-07-24T03:05:40;4.63;;;3.47;;
15271;SDS011;7737;51.578;7.268;2023-07-24T03:08:07;5.78;;;3.40;;
15271;SDS011;7737;51.578;7.268;2023-07-24T03:10:34;4.90;;;3.70;;
15271;SDS011;7737;51.578;7.268;2023-07-24T03:13:01;4.18;;;3.42;;
15271;SDS011;7737;51.578;7.268;2023-07-24T03:15:27;4.55;;;3.53;;
15271;SDS011;7737;51.578;7.268;2023-07-24T03:17:53;4.13;;;3.63;;
15271;SDS011;7737;51.578;7.268;2023-07-24T03:20:20;5.07;;;3.83;;
15271;SDS011;7737;51.578;7.268;2023-07-24T03:22:47;4.60;;;4.00;;
15271;SDS011;7737;51.578;7.268;2023-07-24T03:25:13;4.60;;;3.67;;
15271;SDS011;7737;51.578;7.268;2023-07-24T03:27:41;6.95;;;3.72;;
15271;SDS011;7737;51.578;7.268;2023-07-24T03:30:08;5.80;;;3.88;;
15271;SDS011;7737;51.578;7.268;2023-07-24T03:32:35;4.75;;;4.22;;
15271;SDS011;7737;51.578;7.268;2023-07-24T03:35:02;5.63;;;4.30;;
15271;SDS011;7737;51.578;7.268;2023-07-24T03:37:29;4.22;;;3.83;;
15271;SDS011;7737;51.578;7.268;2023-07-24T03:39:56;6.10;;;4.15;;
15271;SDS011;7737;51.578;7.268;2023-07-24T03:42:26;5.45;;;4.30;;
15271;SDS011;7737;51.578;7.268;2023-07-24T03:44:55;4.35;;;3.92;;
15271;SDS011;7737;51.578;7.268;2023-07-24T03:47:21;4.93;;;4.15;;
15271;SDS011;7737;51.578;7.268;2023-07-24T03:49:48;5.22;;;4.40;;
15271;SDS011;7737;51.578;7.268;2023-07-24T03:52:15;6.07;;;4.47;;
15271;SDS011;7737;51.578;7.268;2023-07-24T03:54:42;5.68;;;4.70;;
15271;SDS011;7737;51.578;7.268;2023-07-24T03:57:09;6.60;;;4.57;;
15271;SDS011;7737;51.578;7.268;2023-07-24T03:59:35;7.20;;;4.90;;
15271;SDS011;7737;51.578;7.268;2023-07-24T04:02:03;7.55;;;4.88;;
15271;SDS011;7737;51.578;7.268;2023-07-24T04:04:30;6.18;;;4.60;;
15271;SDS011;7737;51.578;7.268;2023-07-24T04:06:57;7.28;;;5.15;;
15271;SDS011;7737;51.578;7.268;2023-07-24T04:09:24;7.63;;;4.88;;
15271;SDS011;7737;51.578;7.268;2023-07-24T04:11:50;5.63;;;4.90;;
15271;SDS011;7737;51.578;7.268;2023-07-24T04:14:17;6.43;;;4.70;;
15271;SDS011;7737;51.578;7.268;2023-07-24T04:16:43;6.18;;;4.75;;
15271;SDS011;7737;51.578;7.268;2023-07-24T04:19:12;9.25;;;5.07;;
15271;SDS011;7737;51.578;7.268;2023-07-24T04:21:38;5.97;;;4.70;;
15271;SDS011;7737;51.578;7.268;2023-07-24T04:24:05;6.50;;;4.72;;
15271;SDS011;7737;51.578;7.268;2023-07-24T04:26:32;7.70;;;4.57;;
15271;SDS011;7737;51.578;7.268;2023-07-24T04:28:58;6.47;;;4.72;;
15271;SDS011;7737;51.578;7.268;2023-07-24T04:31:25;7.85;;;4.72;;
15271;SDS011;7737;51.578;7.268;2023-07-24T04:33:51;6.82;;;4.63;;
15271;SDS011;7737;51.578;7.268;2023-07-24T04:36:20;6.60;;;4.80;;
15271;SDS011;7737;51.578;7.268;2023-07-24T04:38:46;8.43;;;4.97;;
15271;SDS011;7737;51.578;7.268;2023-07-24T04:41:13;5.75;;;4.95;;
15271;SDS011;7737;51.578;7.268;2023-07-24T04:43:39;5.80;;;4.70;;
15271;SDS011;7737;51.578;7.268;2023-07-24T04:46:06;7.30;;;4.80;;
15271;SDS011;7737;51.578;7.268;2023-07-24T04:48:32;8.82;;;4.80;;
15271;SDS011;7737;51.578;7.268;2023-07-24T04:50:59;5.30;;;4.65;;
15271;SDS011;7737;51.578;7.268;2023-07-24T04:53:27;6.75;;;4.95;;
15271;SDS011;7737;51.578;7.268;2023-07-24T04:55:53;6.22;;;4.80;;
15271;SDS011;7737;51.578;7.268;2023-07-24T04:58:20;6.50;;;5.25;;
15271;SDS011;7737;51.578;7.268;2023-07-24T05:00:47;7.72;;;5.22;;
15271;SDS011;7737;51.578;7.268;2023-07-24T05:03:13;6.88;;;4.80;;
15271;SDS011;7737;51.578;7.268;2023-07-24T05:05:42;6.38;;;4.90;;
15271;SDS011;7737;51.578;7.268;2023-07-24T05:08:08;5.75;;;5.00;;
15271;SDS011;7737;51.578;7.268;2023-07-24T05:10:36;9.63;;;5.80;;
15271;SDS011;7737;51.578;7.268;2023-07-24T05:13:03;8.25;;;5.20;;
15271;SDS011;7737;51.578;7.268;2023-07-24T05:15:29;7.80;;;5.38;;
15271;SDS011;7737;51.578;7.268;2023-07-24T05:17:56;7.03;;;5.38;;
15271;SDS011;7737;51.578;7.268;2023-07-24T05:20:22;8.77;;;5.05;;
15271;SDS011;7737;51.578;7.268;2023-07-24T05:22:49;7.60;;;5.20;;
15271;SDS011;7737;51.578;7.268;2023-07-24T05:25:16;6.32;;;5.20;;
15271;SDS011;7737;51.578;7.268;2023-07-24T05:27:45;6.53;;;5.07;;
15271;SDS011;7737;51.578;7.268;2023-07-24T05:30:11;6.90;;;5.60;;
15271;SDS011;7737;51.578;7.268;2023-07-24T05:32:38;5.78;;;4.95;;
15271;SDS011;7737;51.578;7.268;2023-07-24T05:35:04;5.88;;;5.28;;
15271;SDS011;7737;51.578;7.268;2023-07-24T05:37:31;6.65;;;5.47;;
15271;SDS011;7737;51.578;7.268;2023-07-24T05:39:58;7.03;;;5.30;;
15271;SDS011;7737;51.578;7.268;2023-07-24T05:42:24;7.57;;;5.35;;
15271;SDS011;7737;51.578;7.268;2023-07-24T05:44:52;7.32;;;5.13;;
15271;SDS011;7737;51.578;7.268;2023-07-24T05:47:19;8.85;;;5.28;;
15271;SDS011;7737;51.578;7.268;2023-07-24T05:49:45;6.93;;;4.82;;
15271;SDS011;7737;51.578;7.268;2023-07-24T05:52:12;6.88;;;5.35;;
15271;SDS011;7737;51.578;7.268;2023-07-24T05:54:38;5.90;;;5.13;;
15271;SDS011;7737;51.578;7.268;2023-07-24T05:57:05;7.53;;;5.40;;
15271;SDS011;7737;51.578;7.268;2023-07-24T05:59:32;7.88;;;5.35;;
15271;SDS011;7737;51.578;7.268;2023-07-24T06:02:00;7.03;;;4.85;;
15271;SDS011;7737;51.578;7.268;2023-07-24T06:04:26;7.32;;;5.40;;
15271;SDS011;7737;51.578;7.268;2023-07-24T06:06:53;6.07;;;5.30;;
15271;SDS011;7737;51.578;7.268;2023-07-24T06:09:19;5.68;;;5.05;;
15271;SDS011;7737;51.578;7.268;2023-07-24T06:11:46;6.72;;;4.97;;
15271;SDS011;7737;51.578;7.268;2023-07-24T06:14:13;7.00;;;5.30;;
15271;SDS011;7737;51.578;7.268;2023-07-24T06:16:39;8.05;;;5.25;;
15271;SDS011;7737;51.578;7.268;2023-07-24T06:19:07;7.03;;;4.97;;
15271;SDS011;7737;51.578;7.268;2023-07-24T06:21:34;5.72;;;5.13;;
15271;SDS011;7737;51.578;7.268;2023-07-24T06:24:00;6.45;;;5.45;;
15271;SDS011;7737;51.578;7.268;2023-07-24T06:26:27;8.93;;;5.80;;
15271;SDS011;7737;51.578;7.268;2023-07-24T06:28:54;7.07;;;5.28;;
15271;SDS011;7737;51.578;7.268;2023-07-24T06:31:20;5.60;;;4.97;;
15271;SDS011;7737;51.578;7.268;2023-07-24T06:33:47;7.47;;;5.20;;
15271;SDS011;7737;51.578;7.268;2023-07-24T06:36:15;5.82;;;4.65;;
15271;SDS011;7737;51.578;7.268;2023-07-24T06:38:41;7.45;;;4.85;;
15271;SDS011;7737;51.578;7.268;2023-07-24T06:41:09;5.38;;;4.78;;
15271;SDS011;7737;51.578;7.268;2023-07-24T06:43:35;5.80;;;5.10;;
15271;SDS011;7737;51.578;7.268;2023-07-24T06:46:02;6.60;;;4.55;;
15271;SDS011;7737;51.578;7.268;2023-07-24T06:48:28;5.80;;;4.82;;
15271;SDS011;7737;51.578;7.268;2023-07-24T06:50:55;5.70;;;5.13;;
15271;SDS011;7737;51.578;7.268;2023-07-24T06:53:23;7.10;;;5.03;;
15271;SDS011;7737;51.578;7.268;2023-07-24T06:55:49;6.10;;;5.03;;
15271;SDS011;7737;51.578;7.268;2023-07-24T06:58:16;5.10;;;4.50;;
15271;SDS011;7737;51.578;7.268;2023-07-24T07:00:42;5.10;;;4.60;;
15271;SDS011;7737;51.578;7.268;2023-07-24T07:03:09;5.45;;;4.82;;
15271;SDS011;7737;51.578;7.268;2023-07-24T07:05:35;6.78;;;4.97;;
15271;SDS011;7737;51.578;7.268;2023-07-24T07:08:02;6.35;;;5.07;;
15271;SDS011;7737;51.578;7.268;2023-07-24T07:10:31;6.07;;;4.90;;
15271;SDS011;7737;51.578;7.268;2023-07-24T07:12:58;6.63;;;4.97;;
15271;SDS011;7737;51.578;7.268;2023-07-24T07:15:24;6.05;;;4.82;;
15271;SDS011;7737;51.578;7.268;2023-07-24T07:17:51;7.15;;;5.30;;
15271;SDS011;7737;51.578;7.268;2023-07-24T07:20:17;5.28;;;4.72;;
15271;SDS011;7737;51.578;7.268;2023-07-24T07:22:44;5.55;;;4.97;;
15271;SDS011;7737;51.578;7.268;2023-07-24T07:25:11;6.47;;;4.90;;
15271;SDS011;7737;51.578;7.268;2023-07-24T07:27:38;5.78;;;4.85;;
15271;SDS011;7737;51.578;7.268;2023-07-24T07:30:05;6.00;;;4.50;;
15271;SDS011;7737;51.578;7.268;2023-07-24T07:32:33;5.95;;;4.90;;
15271;SDS011;7737;51.578;7.268;2023-07-24T07:34:59;5.00;;;4.50;;
15271;SDS011;7737;51.578;7.268;2023-07-24T07:37:26;5.43;;;4.68;;
15271;SDS011;7737;51.578;7.268;2023-07-24T07:39:52;6.78;;;4.70;;
15271;SDS011;7737;51.578;7.268;2023-07-24T07:42:19;7.00;;;4.60;;
15271;SDS011;7737;51.578;7.268;2023-07-24T07:44:47;5.53;;;4.25;;
15271;SDS011;7737;51.578;7.268;2023-07-24T07:47:13;5.53;;;4.63;;
15271;SDS011;7737;51.578;7.268;2023-07-24T07:49:40;5.25;;;4.75;;
15271;SDS011;7737;51.578;7.268;2023-07-24T07:52:06;8.27;;;4.47;;
15271;SDS011;7737;51.578;7.268;2023-07-24T07:54:33;6.90;;;4.53;;
15271;SDS011;7737;51.578;7.268;2023-07-24T07:57:00;4.65;;;4.18;;
15271;SDS011;7737;51.578;7.268;2023-07-24T07:59:26;7.78;;;4.43;;
15271;SDS011;7737;51.578;7.268;2023-07-24T08:01:54;5.00;;;4.32;;
15271;SDS011;7737;51.578;7.268;2023-07-24T08:04:21;4.78;;;4.03;;
15271;SDS011;7737;51.578;7.268;2023-07-24T08:06:47;6.28;;;4.55;;
15271;SDS011;7737;51.578;7.268;2023-07-24T08:09:14;5.75;;;4.50;;
15271;SDS011;7737;51.578;7.268;2023-07-24T08:11:42;6.10;;;4.50;;
15271;SDS011;7737;51.578;7.268;2023-07-24T08:14:09;5.90;;;4.40;;
15271;SDS011;7737;51.578;7.268;2023-07-24T08:16:35;6.05;;;4.50;;
15271;SDS011;7737;51.578;7.268;2023-07-24T08:19:03;4.32;;;4.03;;
15271;SDS011;7737;51.578;7.268;2023-07-24T08:21:30;4.65;;;4.15;;
15271;SDS011;7737;51.578;7.268;2023-07-24T08:23:56;4.45;;;4.03;;
15271;SDS011;7737;51.578;7.268;2023-07-24T08:26:23;6.15;;;4.50;;
15271;SDS011;7737;51.578;7.268;2023-07-24T08:28:51;4.38;;;3.83;;
15271;SDS011;7737;51.578;7.268;2023-07-24T08:31:17;5.82;;;4.43;;
15271;SDS011;7737;51.578;7.268;2023-07-24T08:33:44;5.43;;;4.40;;
15271;SDS011;7737;51.578;7.268;2023-07-24T08:36:12;6.28;;;4.88;;
15271;SDS011;7737;51.578;7.268;2023-07-24T08:38:38;6.93;;;4.93;;
15271;SDS011;7737;51.578;7.268;2023-07-24T08:41:08;7.05;;;5.18;;
15271;SDS011;7737;51.578;7.268;2023-07-24T08:43:36;5.50;;;4.68;;
15271;SDS011;7737;51.578;7.268;2023-07-24T08:46:04;6.93;;;5.15;;
15271;SDS011;7737;51.578;7.268;2023-07-24T08:48:31;7.05;;;5.07;;
15271;SDS011;7737;51.578;7.268;2023-07-24T08:51:01;5.78;;;4.70;;
15271;SDS011;7737;51.578;7.268;2023-07-24T08:53:29;5.25;;;4.75;;
15271;SDS011;7737;51.578;7.268;2023-07-24T08:55:57;6.68;;;4.30;;
15271;SDS011;7737;51.578;7.268;2023-07-24T08:58:25;6.80;;;4.72;;
15271;SDS011;7737;51.578;7.268;2023-07-24T09:00:52;6.20;;;4.70;;
15271;SDS011;7737;51.578;7.268;2023-07-24T09:03:18;5.00;;;4.50;;
15271;SDS011;7737;51.578;7.268;2023-07-24T09:05:45;6.47;;;4.63;;
15271;SDS011;7737;51.578;7.268;2023-07-24T09:08:12;5.40;;;4.90;;
15271;SDS011;7737;51.578;7.268;2023-07-24T09:10:41;6.13;;;5.28;;
15271;SDS011;7737;51.578;7.268;2023-07-24T09:13:08;5.18;;;4.65;;
15271;SDS011;7737;51.578;7.268;2023-07-24T09:15:41;5.38;;;4.88;;
15271;SDS011;7737;51.578;7.268;2023-07-24T09:18:08;6.18;;;5.63;;
15271;SDS011;7737;51.578;7.268;2023-07-24T09:20:39;6.43;;;5.93;;
15271;SDS011;7737;51.578;7.268;2023-07-24T09:23:06;7.32;;;6.50;;
15271;SDS011;7737;51.578;7.268;2023-07-24T09:25:34;7.50;;;6.20;;
15271;SDS011;7737;51.578;7.268;2023-07-24T09:28:10;7.55;;;6.93;;
15271;SDS011;7737;51.578;7.268;2023-07-24T09:30:36;6.78;;;6.05;;
15271;SDS011;7737;51.578;7.268;2023-07-24T09:33:03;6.60;;;6.05;;
15271;SDS011;7737;51.578;7.268;2023-07-24T09:35:30;5.30;;;4.80;;
15271;SDS011;7737;51.578;7.268;2023-07-24T09:38:03;6.38;;;5.45;;
15271;SDS011;7737;51.578;7.268;2023-07-24T09:40:38;4.93;;;3.72;;
15271;SDS011;7737;51.578;7.268;2023-07-24T09:43:20;3.90;;;3.60;;
15271;SDS011;7737;51.578;7.268;2023-07-24T09:45:48;3.95;;;3.65;;
15271;SDS011;7737;51.578;7.268;2023-07-24T09:48:16;5.03;;;4.07;;
15271;SDS011;7737;51.578;7.268;2023-07-24T09:50:44;4.55;;;4.20;;
15271;SDS011;7737;51.578;7.268;2023-07-24T09:53:13;6.95;;;4.50;;
15271;SDS011;7737;51.578;7.268;2023-07-24T09:55:46;5.07;;;4.50;;
15271;SDS011;7737;51.578;7.268;2023-07-24T09:58:18;4.65;;;4.13;;
15271;SDS011;7737;51.578;7.268;2023-07-24T10:00:47;4.45;;;4.15;;
15271;SDS011;7737;51.578;7.268;2023-07-24T10:03:15;4.07;;;3.78;;
15271;SDS011;7737;51.578;7.268;2023-07-24T10:05:42;4.22;;;3.90;;
15271;SDS011;7737;51.578;7.268;2023-07-24T10:08:10;3.72;;;3.42;;
15271;SDS011;7737;51.578;7.268;2023-07-24T10:10:38;3.95;;;3.65;;
15271;SDS011;7737;51.578;7.268;2023-07-24T10:13:05;5.30;;;3.85;;
15271;SDS011;7737;51.578;7.268;2023-07-24T10:15:33;3.95;;;3.63;;
15271;SDS011;7737;51.578;7.268;2023-07-24T10:18:01;3.80;;;3.50;;
15271;SDS011;7737;51.578;7.268;2023-07-24T10:20:32;3.53;;;3.22;;
15271;SDS011;7737;51.578;7.268;2023-07-24T10:23:00;3.30;;;3.10;;
15271;SDS011;7737;51.578;7.268;2023-07-24T10:25:28;3.33;;;3.03;;
15271;SDS011;7737;51.578;7.268;2023-07-24T10:28:00;3.30;;;3.00;;
15271;SDS011;7737;51.578;7.268;2023-07-24T10:30:30;3.30;;;3.00;;
15271;SDS011;7737;51.578;7.268;2023-07-24T10:33:04;3.42;;;2.70;;
15271;SDS011;7737;51.578;7.268;2023-07-24T10:35:36;3.10;;;2.80;;
15271;SDS011;7737;51.578;7.268;2023-07-24T10:38:07;3.30;;;3.00;;
15271;SDS011;7737;51.578;7.268;2023-07-24T10:40:34;3.65;;;2.70;;
15271;SDS011;7737;51.578;7.268;2023-07-24T10:43:01;2.85;;;2.30;;
15271;SDS011;7737;51.578;7.268;2023-07-24T10:45:41;2.85;;;2.50;;
15271;SDS011;7737;51.578;7.268;2023-07-24T10:48:10;3.13;;;2.75;;
15271;SDS011;7737;51.578;7.268;2023-07-24T10:50:38;2.58;;;2.38;;
15271;SDS011;7737;51.578;7.268;2023-07-24T10:53:05;2.72;;;2.50;;
15271;SDS011;7737;51.578;7.268;2023-07-24T10:55:32;3.13;;;2.63;;
15271;SDS011;7737;51.578;7.268;2023-07-24T10:57:58;2.88;;;2.50;;
15271;SDS011;7737;51.578;7.268;2023-07-24T11:00:25;3.55;;;3.08;;
15271;SDS011;7737;51.578;7.268;2023-07-24T11:02:52;4.15;;;2.70;;
15271;SDS011;7737;51.578;7.268;2023-07-24T11:05:21;3.60;;;2.88;;
15271;SDS011;7737;51.578;7.268;2023-07-24T11:07:48;3.75;;;2.90;;
15271;SDS011;7737;51.578;7.268;2023-07-24T11:10:15;4.05;;;2.85;;
15271;SDS011;7737;51.578;7.268;2023-07-24T11:12:42;4.75;;;2.90;;
15271;SDS011;7737;51.578;7.268;2023-07-24T11:15:09;3.42;;;3.03;;
15271;SDS011;7737;51.578;7.268;2023-07-24T11:17:36;3.63;;;3.25;;
15271;SDS011;7737;51.578;7.268;2023-07-24T11:20:06;4.40;;;3.70;;
15271;SDS011;7737;51.578;7.268;2023-07-24T11:22:35;3.92;;;3.50;;
15271;SDS011;7737;51.578;7.268;2023-07-24T11:25:04;3.92;;;3.25;;
15271;SDS011;7737;51.578;7.268;2023-07-24T11:27:31;4.82;;;3.22;;
15271;SDS011;7737;51.578;7.268;2023-07-24T11:29:58;4.05;;;3.25;;
15271;SDS011;7737;51.578;7.268;2023-07-24T11:32:25;4.00;;;3.25;;
15271;SDS011;7737;51.578;7.268;2023-07-24T11:34:52;4.65;;;3.45;;
15271;SDS011;7737;51.578;7.268;2023-07-24T11:37:19;3.92;;;3.53;;
15271;SDS011;7737;51.578;7.268;2023-07-24T11:39:55;3.95;;;3.30;;
15271;SDS011;7737;51.578;7.268;2023-07-24T11:42:24;3.42;;;3.13;;
15271;SDS011;7737;51.578;7.268;2023-07-24T11:44:51;3.55;;;2.90;;
15271;SDS011;7737;51.578;7.268;2023-07-24T11:47:18;7.63;;;4.30;;
15271;SDS011;7737;51.578;7.268;2023-07-24T11:49:44;3.90;;;3.33;;
15271;SDS011;7737;51.578;7.268;2023-07-24T11:52:22;4.45;;;3.60;;
15271;SDS011;7737;51.578;7.268;2023-07-24T11:54:56;3.40;;;3.10;;
15271;SDS011;7737;51.578;7.268;2023-07-24T11:57:26;3.95;;;3.55;;
15271;SDS011;7737;51.578;7.268;2023-07-24T11:59:53;8.15;;;4.40;;
15271;SDS011;7737;51.578;7.268;2023-07-24T12:02:21;12.60;;;5.20;;
15271;SDS011;7737;51.578;7.268;2023-07-24T12:04:53;3.53;;;2.78;;
15271;SDS011;7737;51.578;7.268;2023-07-24T12:07:21;3.17;;;1.88;;
15271;SDS011;7737;51.578;7.268;2023-07-24T12:09:50;2.97;;;2.50;;
15271;SDS011;7737;51.578;7.268;2023-07-24T12:12:18;2.70;;;2.20;;
15271;SDS011;7737;51.578;7.268;2023-07-24T12:14:45;2.88;;;2.10;;
15271;SDS011;7737;51.578;7.268;2023-07-24T12:17:17;4.78;;;2.38;;
15271;SDS011;7737;51.578;7.268;2023-07-24T12:19:45;2.13;;;1.77;;
15271;SDS011;7737;51.578;7.268;2023-07-24T12:22:12;3.20;;;2.17;;
15271;SDS011;7737;51.578;7.268;2023-07-24T12:24:38;3.97;;;1.80;;
15271;SDS011;7737;51.578;7.268;2023-07-24T12:27:05;2.22;;;1.80;;
15271;SDS011;7737;51.578;7.268;2023-07-24T12:29:33;3.83;;;1.85;;
15271;SDS011;7737;51.578;7.268;2023-07-24T12:31:59;3.25;;;2.08;;
15271;SDS011;7737;51.578;7.268;2023-07-24T12:34:26;2.50;;;1.85;;
15271;SDS011;7737;51.578;7.268;2023-07-24T12:36:52;2.90;;;2.10;;
15271;SDS011;7737;51.578;7.268;2023-07-24T12:39:19;2.25;;;1.88;;
15271;SDS011;7737;51.578;7.268;2023-07-24T12:41:46;2.50;;;1.90;;
15271;SDS011;7737;51.578;7.268;2023-07-24T12:44:12;3.75;;;1.88;;
15271;SDS011;7737;51.578;7.268;2023-07-24T12:46:40;2.40;;;1.73;;
15271;SDS011;7737;51.578;7.268;2023-07-24T12:49:07;2.00;;;1.75;;
15271;SDS011;7737;51.578;7.268;2023-07-24T12:51:33;1.88;;;1.73;;
15271;SDS011;7737;51.578;7.268;2023-07-24T12:54:00;2.15;;;1.50;;
15271;SDS011;7737;51.578;7.268;2023-07-24T12:56:27;2.75;;;1.70;;
15271;SDS011;7737;51.578;7.268;2023-07-24T12:58:53;2.13;;;1.45;;
15271;SDS011;7737;51.578;7.268;2023-07-24T13:01:20;1.60;;;1.40;;
15271;SDS011;7737;51.578;7.268;2023-07-24T13:03:48;1.77;;;1.52;;
15271;SDS011;7737;51.578;7.268;2023-07-24T13:06:14;1.60;;;1.50;;
15271;SDS011;7737;51.578;7.268;2023-07-24T13:08:41;1.75;;;1.50;;
15271;SDS011;7737;51.578;7.268;2023-07-24T13:11:07;2.20;;;1.60;;
15271;SDS011;7737;51.578;7.268;2023-07-24T13:13:34;1.95;;;1.40;;
15271;SDS011;7737;51.578;7.268;2023-07-24T13:16:01;1.50;;;1.40;;
15271;SDS011;7737;51.578;7.268;2023-07-24T13:18:28;3.25;;;1.50;;
15271;SDS011;7737;51.578;7.268;2023-07-24T13:20:56;3.45;;;1.42;;
15271;SDS011;7737;51.578;7.268;2023-07-24T13:23:23;1.35;;;1.25;;
15271;SDS011;7737;51.578;7.268;2023-07-24T13:25:51;1.73;;;1.60;;
15271;SDS011;7737;51.578;7.268;2023-07-24T13:28:18;2.20;;;1.60;;
15271;SDS011;7737;51.578;7.268;2023-07-24T13:30:45;2.15;;;1.50;;
15271;SDS011;7737;51.578;7.268;2023-07-24T13:33:12;2.30;;;1.88;;
15271;SDS011;7737;51.578;7.268;2023-07-24T13:35:39;1.95;;;1.77;;
15271;SDS011;7737;51.578;7.268;2023-07-24T13:38:07;2.00;;;1.80;;
15271;SDS011;7737;51.578;7.268;2023-07-24T13:40:34;3.42;;;2.40;;
15271;SDS011;7737;51.578;7.268;2023-07-24T13:43:00;2.30;;;2.05;;
15271;SDS011;7737;51.578;7.268;2023-07-24T13:45:27;4.82;;;2.10;;
15271;SDS011;7737;51.578;7.268;2023-07-24T13:47:54;2.25;;;2.05;;
15271;SDS011;7737;51.578;7.268;2023-07-24T13:50:20;3.65;;;2.30;;
15271;SDS011;7737;51.578;7.268;2023-07-24T13:52:47;2.67;;;2.40;;
15271;SDS011;7737;51.578;7.268;2023-07-24T13:55:15;3.05;;;2.40;;
15271;SDS011;7737;51.578;7.268;2023-07-24T13:57:41;2.67;;;2.20;;
15271;SDS011;7737;51.578;7.268;2023-07-24T14:00:08;3.60;;;2.40;;
15271;SDS011;7737;51.578;7.268;2023-07-24T14:02:36;2.70;;;2.40;;
15271;SDS011;7737;51.578;7.268;2023-07-24T14:05:02;2.78;;;2.50;;
15271;SDS011;7737;51.578;7.268;2023-07-24T14:07:29;2.50;;;2.28;;
15271;SDS011;7737;51.578;7.268;2023-07-24T14:09:56;3.20;;;2.38;;
15271;SDS011;7737;51.578;7.268;2023-07-24T14:12:24;4.45;;;2.65;;
15271;SDS011;7737;51.578;7.268;2023-07-24T14:14:50;3.10;;;2.83;;
15271;SDS011;7737;51.578;7.268;2023-07-24T14:17:17;3.00;;;2.80;;
15271;SDS011;7737;51.578;7.268;2023-07-24T14:19:44;3.88;;;3.38;;
15271;SDS011;7737;51.578;7.268;2023-07-24T14:22:10;3.45;;;3.00;;
15271;SDS011;7737;51.578;7.268;2023-07-24T14:24:37;2.92;;;2.72;;
15271;SDS011;7737;51.578;7.268;2023-07-24T14:27:04;2.70;;;2.50;;
15271;SDS011;7737;51.578;7.268;2023-07-24T14:29:32;2.92;;;2.67;;
15271;SDS011;7737;51.578;7.268;2023-07-24T14:31:59;3.83;;;2.55;;
15271;SDS011;7737;51.578;7.268;2023-07-24T14:34:25;3.13;;;2.45;;
15271;SDS011;7737;51.578;7.268;2023-07-24T14:36:52;2.70;;;2.50;;
15271;SDS011;7737;51.578;7.268;2023-07-24T14:39:19;2.70;;;2.50;;
15271;SDS011;7737;51.578;7.268;2023-07-24T14:41:45;3.45;;;2.95;;
15271;SDS011;7737;51.578;7.268;2023-07-24T14:44:12;2.90;;;2.70;;
15271;SDS011;7737;51.578;7.268;2023-07-24T14:46:40;3.17;;;2.85;;
15271;SDS011;7737;51.578;7.268;2023-07-24T14:49:07;3.60;;;3.30;;
15271;SDS011;7737;51.578;7.268;2023-07-24T14:51:33;3.90;;;2.97;;
15271;SDS011;7737;51.578;7.268;2023-07-24T14:54:00;3.45;;;3.08;;
15271;SDS011;7737;51.578;7.268;2023-07-24T14:56:26;5.70;;;5.18;;
15271;SDS011;7737;51.578;7.268;2023-07-24T14:58:53;3.90;;;3.55;;
15271;SDS011;7737;51.578;7.268;2023-07-24T15:01:20;4.25;;;3.20;;